Portada
METAR-TAF:

METAR-TAF

Aeroports :

Gainesville, Florida, Estats Units d'Amèrica

latitud: 29-41-31N, longitud: 082-16-32W, altitud: 46 m

Observació

L'informe es va fer fa 8 minuts, a les 16:53 UTC
Vent 9 kt del Oest
Temperatura 11°C
Humitat 47%
Pressió 1023 hPa
Visibilitat: 16.1 km
Cel clar

METAR: KGNV 271653Z 28009KT 10SM CLR 11/00 A3022 RMK AO2 SLP233 T01060000

Hora: 12:01 (17:01 UTC)

Pronòstic

L'informe es va fer fa 5 hores i 41 minuts, a les 11:20 UTC
Pronòstic vàlid del 27 a les 12 UTC al 28 a les 12 UTC
Vent 10 kt del Nord-Oest amb ràfegues de 15 kt
Visibilitat: 10 km
Escasses núvols a una alçada de 3000 ft
Núvols disperses a una alçada de 25000 ft
A partir de les 27 a les 2300 UTC
Vent 2 kt del Oest/Nord-Oest
Visibilitat: 10 km
Cel clar

TAF: KGNV 271120Z 2712/2812 31010G15KT P6SM FEW030 SCT250 FM272300 29002KT P6SM SKC

Observacions i pronòstics meteorològics de més de 4000 aeroports (METAR i TAF).

Les estacions disponibles són els punts grocs i vermells al mapa.

Posi el ratolí al punt desitjat per veure el nom de l'estació.

Feu clic per veure les observacions i els pronòstics meteorològics.

Per canviar el mapa: feu clic els botons verds amb una creu de color negre per apropar; al botó verd amb un guió per allunyar la imatge; o en les fletxes verdes per a mapes adjacents.


METAR-TAF: